createdAt,value
2019-04-04T00:02:20.531Z,85.30
2019-04-04T00:04:48.129Z,85.70
2019-04-04T00:07:16.585Z,86.10
2019-04-04T00:09:44.268Z,86.10
2019-04-04T00:12:11.909Z,86.10
2019-04-04T00:14:39.530Z,87.10
2019-04-04T00:17:07.107Z,86.30
2019-04-04T00:19:34.675Z,86.40
2019-04-04T00:22:02.990Z,86.50
2019-04-04T00:24:30.298Z,86.60
2019-04-04T00:26:57.870Z,86.50
2019-04-04T00:29:25.989Z,86.50
2019-04-04T00:31:53.558Z,86.40
2019-04-04T00:34:21.129Z,86.50
2019-04-04T00:36:48.763Z,86.60
2019-04-04T00:39:17.229Z,86.90
2019-04-04T00:41:45.425Z,86.90
2019-04-04T00:44:14.256Z,87.00
2019-04-04T00:46:43.314Z,87.20
2019-04-04T00:49:11.788Z,86.20
2019-04-04T00:51:41.227Z,86.30
2019-04-04T00:54:09.611Z,86.20
2019-04-04T00:56:37.190Z,86.10
2019-04-04T00:59:04.885Z,85.90
2019-04-04T01:01:32.500Z,85.90
2019-04-04T01:04:00.615Z,86.10
2019-04-04T01:06:27.680Z,86.50
2019-04-04T01:08:55.269Z,85.80
2019-04-04T01:11:23.090Z,85.80
2019-04-04T01:13:50.705Z,85.40
2019-04-04T01:16:18.279Z,85.80
2019-04-04T01:18:45.849Z,85.30
2019-04-04T01:21:13.477Z,85.20
2019-04-04T01:23:41.817Z,85.90
2019-04-04T01:26:09.390Z,85.80
2019-04-04T01:28:37.117Z,85.80
2019-04-04T01:31:04.592Z,86.20
2019-04-04T01:33:32.162Z,85.90
2019-04-04T01:35:59.772Z,85.90
2019-04-04T01:38:29.160Z,86.20
2019-04-04T01:40:55.226Z,85.70
2019-04-04T01:43:22.578Z,85.90
2019-04-04T01:45:50.151Z,86.00
2019-04-04T01:48:18.853Z,86.20
2019-04-04T01:50:45.333Z,86.40
2019-04-04T01:53:13.669Z,86.70
2019-04-04T01:55:41.248Z,86.70
2019-04-04T01:58:09.984Z,86.70
2019-04-04T02:00:36.443Z,87.00
2019-04-04T02:03:04.020Z,87.30
2019-04-04T02:05:31.970Z,87.40
2019-04-04T02:08:01.011Z,88.20
2019-04-04T02:10:27.137Z,87.30
2019-04-04T02:12:54.743Z,87.30
2019-04-04T02:15:22.319Z,87.20
2019-04-04T02:17:51.057Z,87.20
2019-04-04T02:20:17.506Z,87.10
2019-04-04T02:22:45.094Z,87.10
2019-04-04T02:25:12.668Z,87.10
2019-04-04T02:27:40.820Z,87.10
2019-04-04T02:30:08.345Z,87.00
2019-04-04T02:32:35.913Z,87.00
2019-04-04T02:35:04.306Z,87.10
2019-04-04T02:37:32.640Z,87.00
2019-04-04T02:40:00.223Z,87.00
2019-04-04T02:42:27.865Z,87.00
2019-04-04T02:44:55.440Z,87.00
2019-04-04T02:47:23.014Z,86.90
2019-04-04T02:49:51.436Z,87.70
2019-04-04T02:52:19.021Z,86.90
2019-04-04T02:54:46.591Z,86.90
2019-04-04T02:57:14.270Z,86.90
2019-04-04T02:59:41.847Z,86.80
2019-04-04T03:02:10.194Z,86.80
2019-04-04T03:04:37.812Z,86.80
2019-04-04T03:07:05.387Z,86.80
2019-04-04T03:09:32.963Z,86.40
2019-04-04T03:12:00.575Z,86.40
2019-04-04T03:14:28.914Z,86.60
2019-04-04T03:16:57.781Z,86.60
2019-04-04T03:19:24.088Z,86.70
2019-04-04T03:21:54.930Z,86.70
2019-04-04T03:24:19.239Z,86.70
2019-04-04T03:26:46.926Z,86.70
2019-04-04T03:29:14.508Z,86.80
2019-04-04T03:31:42.083Z,86.90
2019-04-04T03:34:12.453Z,87.10
2019-04-04T03:36:38.804Z,87.10
2019-04-04T03:39:06.375Z,87.10
2019-04-04T03:41:35.884Z,87.00
2019-04-04T03:44:01.912Z,87.00
2019-04-04T03:46:33.671Z,87.10
2019-04-04T03:48:57.885Z,87.10
2019-04-04T03:51:26.226Z,87.00
2019-04-04T03:53:53.806Z,87.00
2019-04-04T03:56:21.426Z,86.90
2019-04-04T03:58:49.012Z,86.80
2019-04-04T04:01:16.567Z,87.00
2019-04-04T04:03:44.179Z,86.20
2019-04-04T04:06:11.759Z,86.10
2019-04-04T04:08:39.347Z,86.40
2019-04-04T04:11:06.948Z,86.70
2019-04-04T04:13:38.004Z,86.80
2019-04-04T04:16:06.632Z,86.70
2019-04-04T04:18:34.933Z,86.70
2019-04-04T04:21:02.510Z,86.50
2019-04-04T04:23:30.442Z,86.50
2019-04-04T04:25:58.062Z,86.40
2019-04-04T04:28:26.411Z,86.60
2019-04-04T04:30:54.084Z,86.50
2019-04-04T04:33:21.612Z,86.40
2019-04-04T04:35:49.209Z,85.80
2019-04-04T04:38:16.774Z,85.00
2019-04-04T04:40:47.362Z,85.70
2019-04-04T04:43:15.430Z,85.30
2019-04-04T04:45:44.373Z,84.90
2019-04-04T04:48:10.004Z,84.90
2019-04-04T04:50:40.363Z,84.70
2019-04-04T04:53:05.919Z,84.70
2019-04-04T04:55:33.540Z,84.80
2019-04-04T04:58:01.122Z,85.40
2019-04-04T05:00:28.700Z,85.00
2019-04-04T05:02:56.341Z,85.00
2019-04-04T05:05:23.916Z,85.20
2019-04-04T05:07:51.490Z,85.40
2019-04-04T05:10:19.568Z,84.70
2019-04-04T05:12:47.146Z,84.60
2019-04-04T05:15:15.486Z,85.00
2019-04-04T05:17:43.122Z,85.00
2019-04-04T05:20:10.697Z,85.30
2019-04-04T05:22:39.948Z,85.40
2019-04-04T05:25:08.319Z,85.70
2019-04-04T05:27:35.107Z,85.80
2019-04-04T05:30:01.053Z,86.30
2019-04-04T05:32:29.010Z,85.70
2019-04-04T05:34:56.587Z,85.70
2019-04-04T05:37:24.175Z,85.80
2019-04-04T05:39:55.216Z,86.90
2019-04-04T05:42:20.911Z,86.20
2019-04-04T05:44:49.497Z,86.20
2019-04-04T05:47:17.120Z,86.10
2019-04-04T05:49:44.708Z,86.10
2019-04-04T05:52:12.285Z,86.40
2019-04-04T05:54:39.956Z,85.80
2019-04-04T05:57:07.530Z,85.60
2019-04-04T05:59:35.122Z,85.60
2019-04-04T06:02:03.353Z,85.00
2019-04-04T06:04:30.930Z,84.20
2019-04-04T06:06:59.305Z,85.40
2019-04-04T06:09:26.902Z,84.70
2019-04-04T06:11:54.799Z,84.20
2019-04-04T06:14:22.380Z,84.10
2019-04-04T06:16:49.999Z,84.40
2019-04-04T06:19:17.571Z,84.70
2019-04-04T06:21:45.157Z,84.80
2019-04-04T06:24:12.788Z,84.90
2019-04-04T06:26:40.365Z,85.20
2019-04-04T06:29:07.943Z,85.70
2019-04-04T06:31:35.566Z,85.10
2019-04-04T06:34:05.692Z,85.10
2019-04-04T06:36:30.736Z,85.10
2019-04-04T06:38:58.362Z,84.30
2019-04-04T06:41:28.099Z,84.40
2019-04-04T06:43:53.533Z,84.20
2019-04-04T06:46:22.889Z,84.30
2019-04-04T06:48:48.746Z,84.50
2019-04-04T06:51:16.326Z,84.80
2019-04-04T06:53:46.861Z,85.30
2019-04-04T06:56:13.062Z,84.60
2019-04-04T06:58:40.765Z,84.60
2019-04-04T07:01:10.994Z,84.50
2019-04-04T07:03:37.503Z,84.30
2019-04-04T07:06:05.121Z,84.20
2019-04-04T07:08:32.747Z,84.10
2019-04-04T07:11:03.337Z,84.10
2019-04-04T07:13:41.398Z,84.10
2019-04-04T07:16:06.375Z,84.40
2019-04-04T07:18:24.315Z,84.40
2019-04-04T07:20:52.659Z,85.10
2019-04-04T07:23:20.283Z,84.60
2019-04-04T07:25:47.866Z,84.10
2019-04-04T07:28:16.904Z,84.00
2019-04-04T07:30:43.085Z,84.00
2019-04-04T07:33:12.668Z,84.20
2019-04-04T07:35:38.246Z,84.50
2019-04-04T07:38:05.897Z,84.70
2019-04-04T07:40:36.308Z,84.80
2019-04-04T07:43:01.835Z,84.70
2019-04-04T07:45:30.379Z,84.70
2019-04-04T07:47:57.963Z,84.80
2019-04-04T07:50:26.387Z,85.30
2019-04-04T07:52:53.163Z,84.80
2019-04-04T07:55:20.753Z,84.80
2019-04-04T07:57:50.893Z,84.90
2019-04-04T08:00:15.971Z,85.40
2019-04-04T08:02:43.552Z,85.40
2019-04-04T08:05:13.128Z,85.20
2019-04-04T08:07:38.752Z,85.60
2019-04-04T08:10:06.336Z,85.40
2019-04-04T08:12:33.913Z,85.10
2019-04-04T08:15:01.582Z,84.30
2019-04-04T08:17:29.164Z,83.30
2019-04-04T08:19:59.802Z,81.20
2019-04-04T08:22:25.174Z,81.20
2019-04-04T08:24:52.757Z,80.90
2019-04-04T08:27:21.109Z,81.80
2019-04-04T08:29:49.192Z,81.30
2019-04-04T08:32:16.772Z,81.00
2019-04-04T08:34:44.435Z,80.80
2019-04-04T08:37:12.068Z,80.30
2019-04-04T08:39:39.646Z,80.50
2019-04-04T08:42:07.217Z,81.20
2019-04-04T08:44:34.848Z,81.50
2019-04-04T08:47:02.426Z,81.60
2019-04-04T08:49:30.003Z,81.40
2019-04-04T08:51:57.635Z,81.70
2019-04-04T08:54:25.228Z,81.90
2019-04-04T08:56:52.814Z,81.80
2019-04-04T08:59:20.439Z,81.90
2019-04-04T09:01:48.021Z,82.50
2019-04-04T09:04:15.602Z,82.60
2019-04-04T09:06:43.227Z,82.90
2019-04-04T09:09:10.800Z,83.50
2019-04-04T09:11:38.379Z,83.90
2019-04-04T09:14:06.045Z,83.80
2019-04-04T09:16:33.591Z,83.90
2019-04-04T09:19:02.028Z,83.60
2019-04-04T09:21:30.533Z,83.50
2019-04-04T09:50:01.662Z,81.60
2019-04-04T10:31:03.395Z,79.40
2019-04-04T10:36:00.904Z,78.80
2019-04-04T10:38:38.770Z,78.50
2019-04-04T10:41:08.774Z,78.00
2019-04-04T10:43:32.760Z,77.10
2019-04-04T10:45:59.513Z,77.10
2019-04-04T10:48:27.236Z,77.50
2019-04-04T10:50:55.837Z,77.60
2019-04-04T10:53:26.303Z,78.40
2019-04-04T10:55:57.044Z,77.70
2019-04-04T10:58:27.565Z,77.80
2019-04-04T11:00:56.416Z,77.70
2019-04-04T11:03:26.137Z,77.00
2019-04-04T11:05:52.005Z,75.10
2019-04-04T11:08:26.140Z,74.70
2019-04-04T11:10:58.821Z,75.30
2019-04-04T11:13:33.376Z,76.40
2019-04-04T11:15:54.370Z,76.70
2019-04-04T11:18:22.152Z,76.60
2019-04-04T11:20:50.548Z,76.80
2019-04-04T11:23:17.461Z,76.80
2019-04-04T11:25:49.426Z,76.90
2019-04-04T11:28:23.010Z,76.70
2019-04-04T11:33:49.480Z,76.00
2019-04-04T11:36:37.511Z,76.10
2019-04-04T11:38:44.239Z,76.00
2019-04-04T11:41:15.252Z,75.30
2019-04-04T11:43:45.501Z,74.80
2019-04-04T11:46:13.416Z,74.60
2019-04-04T11:48:41.430Z,74.50
2019-04-04T11:51:10.718Z,74.80
2019-04-04T11:53:48.221Z,75.10
2019-04-04T11:56:17.119Z,75.20
2019-04-04T11:58:45.363Z,75.10
2019-04-04T12:01:14.391Z,74.70
2019-04-04T12:03:41.969Z,73.30
2019-04-04T12:06:09.573Z,72.50
2019-04-04T12:08:37.982Z,70.60
2019-04-04T12:11:05.578Z,70.60
2019-04-04T12:13:33.175Z,70.80
2019-04-04T12:16:01.589Z,68.90
2019-04-04T12:18:29.183Z,68.90
2019-04-04T12:20:56.779Z,69.60
2019-04-04T12:23:25.201Z,70.70
2019-04-04T12:25:52.826Z,71.40
2019-04-04T12:28:20.414Z,70.80
2019-04-04T12:30:48.140Z,69.80
2019-04-04T12:33:16.544Z,68.40
2019-04-04T12:35:44.184Z,68.30
2019-04-04T12:38:11.989Z,68.20
2019-04-04T12:40:40.371Z,67.00
2019-04-04T12:43:07.997Z,67.10
2019-04-04T12:45:35.780Z,66.60
2019-04-04T12:48:04.122Z,67.80
2019-04-04T12:50:31.699Z,67.80
2019-04-04T12:52:59.327Z,68.70
2019-04-04T12:55:26.910Z,67.20
2019-04-04T12:57:54.483Z,67.50
2019-04-04T13:00:22.898Z,67.00
2019-04-04T13:02:50.480Z,67.30
2019-04-04T13:05:18.059Z,67.40
2019-04-04T13:07:45.687Z,67.50
2019-04-04T13:10:13.275Z,67.70
2019-04-04T13:12:40.859Z,68.20
2019-04-04T13:15:08.501Z,68.00
2019-04-04T13:17:36.079Z,68.50
2019-04-04T13:20:03.674Z,68.80
2019-04-04T13:22:32.077Z,69.40
2019-04-04T13:24:59.659Z,69.30
2019-04-04T13:27:27.245Z,70.00
2019-04-04T13:29:54.864Z,70.40
2019-04-04T13:32:22.857Z,70.10
2019-04-04T13:34:59.101Z,70.20
2019-04-04T13:37:18.055Z,70.30
2019-04-04T13:39:45.639Z,71.40
2019-04-04T13:42:13.221Z,70.50
2019-04-04T13:44:40.859Z,70.30
2019-04-04T13:47:08.429Z,70.70
2019-04-04T13:49:36.005Z,70.50
2019-04-04T13:52:03.672Z,70.20
2019-04-04T13:54:31.206Z,69.80
2019-04-04T13:56:58.776Z,69.80
2019-04-04T13:59:26.593Z,70.10
2019-04-04T14:01:54.941Z,69.40
2019-04-04T14:04:24.477Z,69.40
2019-04-04T14:06:50.478Z,68.60
2019-04-04T14:09:18.059Z,68.00
2019-04-04T14:11:45.637Z,67.50
2019-04-04T14:14:13.781Z,67.30
2019-04-04T14:16:41.374Z,67.30
2019-04-04T14:19:08.947Z,66.90
2019-04-04T14:21:36.625Z,66.90
2019-04-04T14:24:12.912Z,66.50
2019-04-04T14:26:32.108Z,66.10
2019-04-04T14:28:59.417Z,66.40
2019-04-04T14:31:26.992Z,66.60
2019-04-04T14:33:54.567Z,66.70
2019-04-04T14:36:22.193Z,66.80
2019-04-04T14:38:49.777Z,66.80
2019-04-04T14:41:17.364Z,66.50
2019-04-04T14:43:44.978Z,66.90
2019-04-04T14:46:12.559Z,67.20
2019-04-04T14:48:42.263Z,67.10
2019-04-04T14:51:07.758Z,67.10
2019-04-04T14:53:35.399Z,67.30
2019-04-04T14:56:02.981Z,66.90
2019-04-04T14:58:30.943Z,66.10
2019-04-04T15:00:58.964Z,66.30
2019-04-04T15:03:26.599Z,66.20
2019-04-04T15:05:54.293Z,65.90
2019-04-04T15:08:21.878Z,64.60
2019-04-04T15:10:51.650Z,64.30
2019-04-04T15:13:19.267Z,63.50
2019-04-04T15:16:17.243Z,63.40
2019-04-04T15:18:44.866Z,63.50
2019-04-04T15:21:12.439Z,64.50
2019-04-04T15:23:40.015Z,64.20
2019-04-04T15:26:09.731Z,65.00
2019-04-04T15:28:35.992Z,65.00
2019-04-04T15:31:03.566Z,65.30
2019-04-04T15:33:31.188Z,65.80
2019-04-04T15:35:58.761Z,66.60
2019-04-04T15:38:26.344Z,67.50
2019-04-04T15:40:54.452Z,68.00
2019-04-04T15:43:22.053Z,68.40
2019-04-04T15:45:49.627Z,68.70
2019-04-04T15:48:17.338Z,69.20
2019-04-04T15:50:44.943Z,69.60
2019-04-04T15:53:12.529Z,69.80
2019-04-04T15:55:40.146Z,70.20
2019-04-04T15:58:07.717Z,69.90
2019-04-04T16:00:36.079Z,70.90
2019-04-04T16:03:03.807Z,70.90
2019-04-04T16:05:31.270Z,71.60
2019-04-04T16:07:58.851Z,71.90
2019-04-04T16:10:26.469Z,72.20
2019-04-04T16:12:54.049Z,72.70
2019-04-04T16:15:21.632Z,73.10
2019-04-04T16:17:49.254Z,73.60
2019-04-04T16:20:16.820Z,73.60
2019-04-04T16:22:44.478Z,73.80
2019-04-04T16:25:12.988Z,74.10
2019-04-04T16:27:40.557Z,74.00
2019-04-04T16:30:08.365Z,73.90
2019-04-04T16:32:35.837Z,73.60
2019-04-04T16:35:03.410Z,74.10
2019-04-04T16:37:30.984Z,73.50
2019-04-04T16:40:08.139Z,72.80
2019-04-04T16:42:26.235Z,72.40
2019-04-04T16:44:53.814Z,72.70
2019-04-04T16:47:21.470Z,73.20
2019-04-04T16:49:49.009Z,73.50
2019-04-04T16:52:16.578Z,73.90
2019-04-04T16:54:44.235Z,74.00
2019-04-04T16:57:11.811Z,74.40
2019-04-04T16:59:39.385Z,74.60
2019-04-04T17:02:07.055Z,75.00
2019-04-04T17:04:34.624Z,75.50
2019-04-04T17:07:02.229Z,75.80
2019-04-04T17:09:29.852Z,76.40
2019-04-04T17:11:57.428Z,76.00
2019-04-04T17:14:24.997Z,76.20
2019-04-04T17:16:53.100Z,76.00
2019-04-04T17:19:20.679Z,76.40
2019-04-04T17:21:48.275Z,76.50
2019-04-04T17:24:15.936Z,76.40
2019-04-04T17:26:43.477Z,76.50
2019-04-04T17:29:11.068Z,76.30
2019-04-04T17:31:38.824Z,76.20
2019-04-04T17:34:06.505Z,76.30
2019-04-04T17:36:34.088Z,76.00
2019-04-04T17:39:01.893Z,76.00
2019-04-04T17:41:29.340Z,75.60
2019-04-04T17:43:56.962Z,75.20
2019-04-04T17:46:25.387Z,74.40
2019-04-04T17:48:52.967Z,74.40
2019-04-04T17:51:20.548Z,74.10
2019-04-04T17:53:49.168Z,74.10
2019-04-04T17:56:16.800Z,74.00
2019-04-04T17:58:44.135Z,74.10
2019-04-04T18:01:11.860Z,74.40
2019-04-04T18:03:39.435Z,74.70
2019-04-04T18:06:07.028Z,74.90
2019-04-04T18:08:34.685Z,75.10
2019-04-04T18:11:02.240Z,75.30
2019-04-04T18:13:32.059Z,75.50
2019-04-04T18:15:57.519Z,75.60
2019-04-04T18:18:25.503Z,75.00
2019-04-04T18:20:53.092Z,75.20
2019-04-04T18:23:22.149Z,75.30
2019-04-04T18:25:49.720Z,75.40
2019-04-04T18:28:17.291Z,75.70
2019-04-04T18:30:44.926Z,75.80
2019-04-04T18:33:12.870Z,76.10
2019-04-04T18:35:40.485Z,76.20
2019-04-04T18:38:07.889Z,76.20
2019-04-04T18:40:35.322Z,76.50
2019-04-04T18:43:02.938Z,77.00
2019-04-04T18:45:30.600Z,77.30
2019-04-04T18:47:58.168Z,77.50
2019-04-04T18:50:25.747Z,77.50
2019-04-04T18:52:54.230Z,77.50
2019-04-04T18:55:21.754Z,77.40
2019-04-04T18:57:49.325Z,77.30
2019-04-04T19:00:17.384Z,77.30
2019-04-04T19:02:44.953Z,77.10
2019-04-04T19:05:12.845Z,76.90
2019-04-04T19:07:40.479Z,77.00
2019-04-04T19:10:08.388Z,77.10
2019-04-04T19:12:35.961Z,77.20
2019-04-04T19:15:03.583Z,77.20
2019-04-04T19:17:31.181Z,77.40
2019-04-04T19:19:58.738Z,76.80
2019-04-04T19:22:26.430Z,75.60
2019-04-04T19:24:54.010Z,75.70
2019-04-04T19:27:21.592Z,76.00
2019-04-04T19:29:49.219Z,76.30
2019-04-04T19:32:17.572Z,77.20
2019-04-04T19:34:45.145Z,77.20
2019-04-04T19:37:12.781Z,77.60
2019-04-04T19:39:40.350Z,78.00
2019-04-04T19:42:07.961Z,78.10
2019-04-04T19:44:35.717Z,78.30
2019-04-04T19:47:03.290Z,78.40
2019-04-04T19:49:30.861Z,78.70
2019-04-04T19:51:58.476Z,78.90
2019-04-04T19:54:26.053Z,79.10
2019-04-04T19:56:54.406Z,80.20
2019-04-04T19:59:22.037Z,79.60
2019-04-04T20:01:49.624Z,79.80
2019-04-04T20:04:17.205Z,80.10
2019-04-04T20:06:44.821Z,80.40
2019-04-04T20:09:12.402Z,81.00
2019-04-04T20:11:39.973Z,81.90
2019-04-04T20:14:07.619Z,81.20
2019-04-04T20:16:35.232Z,81.20
2019-04-04T20:19:03.020Z,81.20
2019-04-04T20:21:30.674Z,81.50
2019-04-04T20:23:59.042Z,82.10
2019-04-04T20:26:26.642Z,82.10
2019-04-04T20:28:54.610Z,82.20
2019-04-04T20:31:22.158Z,82.00
2019-04-04T20:34:00.930Z,82.00
2019-04-04T20:36:17.564Z,82.00
2019-04-04T20:38:45.918Z,82.00
2019-04-04T20:41:16.238Z,81.80
2019-04-04T20:43:43.566Z,81.80
2019-04-04T20:46:08.719Z,81.70
2019-04-04T20:48:36.289Z,81.80
2019-04-04T20:51:03.949Z,81.80
2019-04-04T20:53:31.522Z,81.80
2019-04-04T20:55:59.097Z,81.90
2019-04-04T20:58:26.722Z,82.00
2019-04-04T21:00:54.298Z,81.90
2019-04-04T21:03:21.874Z,82.00
2019-04-04T21:05:49.495Z,82.10
2019-04-04T21:08:17.067Z,82.10
2019-04-04T21:10:44.656Z,82.20
2019-04-04T21:13:13.122Z,82.80
2019-04-04T21:15:40.699Z,82.80
2019-04-04T21:18:09.157Z,83.20
2019-04-04T21:20:36.845Z,83.20
2019-04-04T21:23:05.211Z,83.30
2019-04-04T21:25:32.883Z,83.20
2019-04-04T21:28:01.381Z,84.20
2019-04-04T21:30:28.997Z,83.30
2019-04-04T21:32:56.610Z,83.70
2019-04-04T21:35:24.913Z,83.80
2019-04-04T21:37:52.560Z,83.80
2019-04-04T21:40:20.235Z,83.10
2019-04-04T21:42:47.896Z,83.10
2019-04-04T21:45:15.738Z,83.10
2019-04-04T21:47:43.282Z,83.20
2019-04-04T21:50:11.702Z,84.20
2019-04-04T21:52:39.306Z,83.70
2019-04-04T21:55:06.931Z,83.90
2019-04-04T21:57:34.582Z,84.40
2019-04-04T22:00:02.198Z,84.40
2019-04-04T22:02:29.799Z,84.50
2019-04-04T22:04:57.792Z,84.50
2019-04-04T22:07:25.366Z,84.50
2019-04-04T22:09:52.939Z,84.40
2019-04-04T22:12:20.646Z,84.40
2019-04-04T22:14:48.183Z,84.50
2019-04-04T22:17:15.763Z,84.50
2019-04-04T22:19:44.138Z,84.60
2019-04-04T22:22:12.482Z,84.80
2019-04-04T22:24:40.053Z,84.60
2019-04-04T22:27:07.679Z,84.60
2019-04-04T22:29:35.262Z,84.60
2019-04-04T22:32:02.839Z,85.00
2019-04-04T22:34:30.460Z,84.50
2019-04-04T22:36:58.043Z,84.60
2019-04-04T22:39:25.641Z,85.90
2019-04-04T22:41:53.247Z,85.20
2019-04-04T22:44:33.768Z,85.40
2019-04-04T22:46:48.422Z,85.50
2019-04-04T22:49:16.115Z,85.70
2019-04-04T22:51:43.694Z,86.50
2019-04-04T22:54:11.307Z,86.20
2019-04-04T22:56:38.909Z,85.60
2019-04-04T22:59:06.482Z,84.80
2019-04-04T23:01:34.060Z,84.90
2019-04-04T23:04:01.669Z,85.10
2019-04-04T23:06:30.014Z,85.50
2019-04-04T23:08:57.592Z,85.50
2019-04-04T23:11:25.202Z,85.70
2019-04-04T23:13:52.783Z,85.80
2019-04-04T23:16:20.361Z,85.90
2019-04-04T23:18:48.014Z,86.10
2019-04-04T23:21:15.592Z,86.10
2019-04-04T23:23:43.187Z,86.30
2019-04-04T23:26:11.569Z,85.60
2019-04-04T23:28:40.150Z,85.70
2019-04-04T23:31:07.729Z,85.70
2019-04-04T23:33:36.392Z,85.80
2019-04-04T23:36:04.742Z,86.60
2019-04-04T23:38:32.312Z,86.60
2019-04-04T23:40:59.938Z,87.10
2019-04-04T23:43:27.511Z,87.20
2019-04-04T23:45:55.097Z,87.40
2019-04-04T23:48:22.704Z,86.60
2019-04-04T23:50:50.292Z,86.70
2019-04-04T23:53:17.871Z,87.00
2019-04-04T23:55:45.478Z,86.30
2019-04-04T23:58:13.822Z,87.00
